createdAt,value
2018-06-29T00:02:08.463Z,23.70
2018-06-29T00:04:36.776Z,23.70
2018-06-29T00:07:05.038Z,23.70
2018-06-29T00:09:33.259Z,23.60
2018-06-29T00:12:01.549Z,23.60
2018-06-29T00:14:29.964Z,23.60
2018-06-29T00:16:58.589Z,23.50
2018-06-29T00:19:26.805Z,23.50
2018-06-29T00:21:55.646Z,23.50
2018-06-29T00:24:24.131Z,23.50
2018-06-29T00:26:52.521Z,23.50
2018-06-29T00:31:49.184Z,23.40
2018-06-29T00:34:18.529Z,23.40
2018-06-29T00:36:46.767Z,23.40
2018-06-29T00:39:15.040Z,23.40
2018-06-29T00:41:43.293Z,23.40
2018-06-29T00:44:11.619Z,23.40
2018-06-29T00:46:39.855Z,23.30
2018-06-29T00:49:08.154Z,23.30
2018-06-29T00:51:36.487Z,23.30
2018-06-29T00:54:04.703Z,23.30
2018-06-29T00:56:32.935Z,23.30
2018-06-29T00:59:01.192Z,23.30
2018-06-29T01:03:57.543Z,23.20
2018-06-29T01:06:25.845Z,23.20
2018-06-29T01:08:54.112Z,23.20
2018-06-29T01:11:22.316Z,23.20
2018-06-29T01:13:50.536Z,23.20
2018-06-29T01:16:19.989Z,23.20
2018-06-29T01:18:48.444Z,23.10
2018-06-29T01:21:16.657Z,23.20
2018-06-29T01:23:44.880Z,23.20
2018-06-29T01:26:13.197Z,23.20
2018-06-29T01:28:41.548Z,23.20
2018-06-29T01:31:09.831Z,23.20
2018-06-29T01:33:38.076Z,23.20
2018-06-29T01:36:06.331Z,23.20
2018-06-29T01:38:34.584Z,23.30
2018-06-29T01:41:02.859Z,23.20
2018-06-29T01:43:31.149Z,23.20
2018-06-29T01:45:59.465Z,23.20
2018-06-29T01:48:27.735Z,23.20
2018-06-29T01:50:56.003Z,23.20
2018-06-29T01:53:24.316Z,23.20
2018-06-29T01:55:52.596Z,23.20
2018-06-29T01:58:20.832Z,23.20
2018-06-29T02:00:49.130Z,23.10
2018-06-29T02:03:17.339Z,23.10
2018-06-29T02:05:45.689Z,23.10
2018-06-29T02:08:14.032Z,23.10
2018-06-29T02:10:42.340Z,23.10
2018-06-29T02:13:12.269Z,23.10
2018-06-29T02:15:40.579Z,23.10
2018-06-29T02:18:08.892Z,23.10
2018-06-29T02:20:37.149Z,23.00
2018-06-29T02:23:05.568Z,23.00
2018-06-29T02:25:33.878Z,23.00
2018-06-29T02:28:02.144Z,23.00
2018-06-29T02:30:30.528Z,23.00
2018-06-29T02:32:58.709Z,23.00
2018-06-29T02:35:27.024Z,23.00
2018-06-29T02:37:55.315Z,23.00
2018-06-29T02:40:23.589Z,23.00
2018-06-29T02:42:51.950Z,23.10
2018-06-29T02:47:49.400Z,23.10
2018-06-29T02:50:17.697Z,23.10
2018-06-29T02:52:46.001Z,23.10
2018-06-29T02:55:14.391Z,23.10
2018-06-29T02:57:42.678Z,23.20
2018-06-29T03:00:10.979Z,23.20
2018-06-29T03:02:39.271Z,23.30
2018-06-29T03:05:07.524Z,23.30
2018-06-29T03:07:35.880Z,23.30
2018-06-29T03:10:04.172Z,23.30
2018-06-29T03:12:32.557Z,23.30
2018-06-29T03:15:00.840Z,23.30
2018-06-29T03:17:29.100Z,23.30
2018-06-29T03:19:57.425Z,23.30
2018-06-29T03:22:25.814Z,23.30
2018-06-29T03:24:54.339Z,23.30
2018-06-29T03:27:22.623Z,23.30
2018-06-29T03:29:50.921Z,23.30
2018-06-29T03:32:19.288Z,23.30
2018-06-29T03:34:47.522Z,23.20
2018-06-29T03:37:15.766Z,23.20
2018-06-29T03:39:44.033Z,23.20
2018-06-29T03:42:12.432Z,23.20
2018-06-29T03:44:40.742Z,23.30
2018-06-29T03:47:09.004Z,23.20
2018-06-29T03:49:37.409Z,23.20
2018-06-29T03:52:05.608Z,23.30
2018-06-29T03:54:33.969Z,23.30
2018-06-29T03:57:02.254Z,23.30
2018-06-29T03:59:30.606Z,23.30
2018-06-29T04:01:58.927Z,23.30
2018-06-29T04:04:27.225Z,23.30
2018-06-29T04:06:55.522Z,23.20
2018-06-29T04:09:23.862Z,23.20
2018-06-29T04:11:52.401Z,23.20
2018-06-29T04:14:20.751Z,23.20
2018-06-29T04:16:49.043Z,23.20
2018-06-29T04:19:17.286Z,23.20
2018-06-29T04:21:45.672Z,23.20
2018-06-29T04:24:14.025Z,23.20
2018-06-29T04:26:43.042Z,23.30
2018-06-29T04:29:11.354Z,23.30
2018-06-29T04:31:39.635Z,23.30
2018-06-29T04:34:08.024Z,23.20
2018-06-29T04:36:36.294Z,23.20
2018-06-29T04:39:07.302Z,23.20
2018-06-29T04:41:35.591Z,23.20
2018-06-29T04:44:03.880Z,23.20
2018-06-29T04:46:32.461Z,23.30
2018-06-29T04:49:00.804Z,23.20
2018-06-29T04:51:29.035Z,23.20
2018-06-29T04:53:57.334Z,23.20
2018-06-29T04:56:25.656Z,23.10
2018-06-29T05:01:21.994Z,23.20
2018-06-29T05:03:50.283Z,23.20
2018-06-29T05:06:18.642Z,23.10
2018-06-29T05:08:46.969Z,23.20
2018-06-29T05:11:17.667Z,23.20
2018-06-29T05:13:46.133Z,23.20
2018-06-29T05:16:14.484Z,23.20
2018-06-29T05:21:10.809Z,23.20
2018-06-29T05:23:39.499Z,23.20
2018-06-29T05:26:07.849Z,23.20
2018-06-29T05:28:36.151Z,23.30
2018-06-29T05:31:04.401Z,23.30
2018-06-29T05:33:32.661Z,23.30
2018-06-29T05:36:01.040Z,23.30
2018-06-29T05:38:29.343Z,23.40
2018-06-29T05:40:57.621Z,23.50
2018-06-29T05:43:25.943Z,23.50
2018-06-29T05:45:54.429Z,23.50
2018-06-29T05:48:22.874Z,23.60
2018-06-29T05:50:51.311Z,23.60
2018-06-29T05:53:19.628Z,23.60
2018-06-29T05:55:47.915Z,23.60
2018-06-29T05:58:16.331Z,23.60
2018-06-29T06:00:44.632Z,23.60
2018-06-29T06:03:12.927Z,23.60
2018-06-29T06:05:41.212Z,23.60
2018-06-29T06:08:09.519Z,23.70
2018-06-29T06:10:37.762Z,23.70
2018-06-29T06:13:06.145Z,23.80
2018-06-29T06:15:34.436Z,23.80
2018-06-29T06:18:02.727Z,23.80
2018-06-29T06:20:30.970Z,23.90
2018-06-29T06:23:09.311Z,23.90
2018-06-29T06:25:37.561Z,23.90
2018-06-29T06:28:05.866Z,24.00
2018-06-29T06:30:34.096Z,24.00
2018-06-29T06:33:02.863Z,24.00
2018-06-29T06:35:31.137Z,24.00
2018-06-29T06:37:59.422Z,24.10
2018-06-29T06:40:27.692Z,24.10
2018-06-29T06:42:56.005Z,24.20
2018-06-29T06:45:24.335Z,24.20
2018-06-29T06:47:52.671Z,24.20
2018-06-29T06:50:21.014Z,24.30
2018-06-29T06:52:49.353Z,24.30
2018-06-29T06:55:17.815Z,24.30
2018-06-29T06:57:46.178Z,24.40
2018-06-29T07:00:14.440Z,24.40
2018-06-29T07:05:11.476Z,24.60
2018-06-29T07:07:39.800Z,24.70
2018-06-29T07:10:08.125Z,24.80
2018-06-29T07:12:36.462Z,24.80
2018-06-29T07:15:04.865Z,24.90
2018-06-29T07:17:33.180Z,25.00
2018-06-29T07:20:01.519Z,25.00
2018-06-29T07:22:30.256Z,25.10
2018-06-29T07:24:58.616Z,25.20
2018-06-29T07:27:27.132Z,25.30
2018-06-29T07:29:55.648Z,25.50
2018-06-29T07:32:24.114Z,25.60
2018-06-29T07:34:52.375Z,25.80
2018-06-29T07:37:20.688Z,25.90
2018-06-29T07:39:49.880Z,26.00
2018-06-29T07:42:18.381Z,26.10
2018-06-29T07:44:46.808Z,26.20
2018-06-29T07:47:15.164Z,26.30
2018-06-29T07:49:43.629Z,26.50
2018-06-29T07:52:11.972Z,26.60
2018-06-29T07:54:40.255Z,26.60
2018-06-29T07:57:08.691Z,26.70
2018-06-29T07:59:36.997Z,26.80
2018-06-29T08:02:05.409Z,26.90
2018-06-29T08:04:33.819Z,27.00
2018-06-29T08:07:02.463Z,27.10
2018-06-29T08:09:30.771Z,27.20
2018-06-29T08:12:00.040Z,27.20
2018-06-29T08:14:29.246Z,27.30
2018-06-29T08:16:57.784Z,27.30
2018-06-29T08:19:26.690Z,27.30
2018-06-29T08:24:23.647Z,27.40
2018-06-29T08:26:52.060Z,27.40
2018-06-29T08:29:20.415Z,27.30
2018-06-29T08:31:48.723Z,27.30
2018-06-29T08:34:17.080Z,27.30
2018-06-29T08:36:45.383Z,27.30
2018-06-29T08:41:41.885Z,27.40
2018-06-29T08:44:10.798Z,27.50
2018-06-29T08:46:39.106Z,27.50
2018-06-29T08:49:07.432Z,27.60
2018-06-29T08:51:35.788Z,27.70
2018-06-29T08:54:04.132Z,27.80
2018-06-29T08:56:32.559Z,27.80
2018-06-29T08:59:00.864Z,27.80
2018-06-29T09:01:29.157Z,27.80
2018-06-29T09:03:57.440Z,27.70
2018-06-29T09:06:25.785Z,27.70
2018-06-29T09:08:54.851Z,27.70
2018-06-29T09:13:52.285Z,27.70
2018-06-29T09:16:20.667Z,27.70
2018-06-29T09:18:48.955Z,27.70
2018-06-29T09:21:17.289Z,27.70
2018-06-29T09:23:45.690Z,27.70
2018-06-29T09:26:14.391Z,27.70
2018-06-29T09:28:42.828Z,27.70
2018-06-29T09:31:11.195Z,27.70
2018-06-29T09:33:39.502Z,27.70
2018-06-29T09:36:07.830Z,27.80
2018-06-29T09:38:36.211Z,27.80
2018-06-29T09:41:04.560Z,27.80
2018-06-29T09:43:32.834Z,27.90
2018-06-29T09:46:01.085Z,27.90
2018-06-29T09:48:29.440Z,27.90
2018-06-29T09:50:57.821Z,28.00
2018-06-29T09:53:26.212Z,28.20
2018-06-29T09:55:54.494Z,28.50
2018-06-29T09:58:22.879Z,29.00
2018-06-29T10:00:55.411Z,29.80
2018-06-29T10:03:19.536Z,30.70
2018-06-29T10:05:47.932Z,31.30
2018-06-29T10:08:16.236Z,31.80
2018-06-29T10:10:44.540Z,32.10
2018-06-29T10:13:12.975Z,32.20
2018-06-29T10:15:42.300Z,32.10
2018-06-29T10:18:10.713Z,31.90
2018-06-29T10:20:39.089Z,31.40
2018-06-29T10:23:07.401Z,31.00
2018-06-29T10:25:36.080Z,30.70
2018-06-29T10:28:04.685Z,30.30
2018-06-29T10:30:34.465Z,30.00
2018-06-29T10:33:02.867Z,29.70
2018-06-29T10:37:59.525Z,29.20
2018-06-29T10:42:56.729Z,28.90
2018-06-29T10:45:25.022Z,28.80
2018-06-29T10:47:54.906Z,28.70
2018-06-29T10:50:23.984Z,28.70
2018-06-29T10:52:52.967Z,28.70
2018-06-29T10:55:21.468Z,28.70
2018-06-29T10:57:49.802Z,28.70
2018-06-29T11:00:18.441Z,28.80
2018-06-29T11:02:46.745Z,28.80
2018-06-29T11:05:15.030Z,28.70
2018-06-29T11:07:43.576Z,28.60
2018-06-29T11:10:11.854Z,28.50
2018-06-29T11:12:40.224Z,28.50
2018-06-29T11:15:09.182Z,28.60
2018-06-29T11:17:37.505Z,28.60
2018-06-29T11:20:06.105Z,28.60
2018-06-29T11:22:34.470Z,28.60
2018-06-29T11:25:02.791Z,28.60
2018-06-29T11:29:59.543Z,28.60
2018-06-29T11:32:27.908Z,28.60
2018-06-29T11:34:56.260Z,28.60
2018-06-29T11:37:24.646Z,28.70
2018-06-29T11:39:53.429Z,28.70
2018-06-29T11:42:21.804Z,28.80
2018-06-29T11:44:50.193Z,28.80
2018-06-29T11:47:18.566Z,28.90
2018-06-29T11:49:46.915Z,28.90
2018-06-29T11:52:15.193Z,28.90
2018-06-29T11:54:43.502Z,29.00
2018-06-29T11:57:11.876Z,29.10
2018-06-29T11:59:40.172Z,29.20
2018-06-29T12:02:08.382Z,29.20
2018-06-29T12:04:36.651Z,29.20
2018-06-29T12:07:05.025Z,29.30
2018-06-29T12:09:33.376Z,29.30
2018-06-29T12:12:01.665Z,29.30
2018-06-29T12:14:30.000Z,29.40
2018-06-29T12:16:58.692Z,29.40
2018-06-29T12:19:26.892Z,29.40
2018-06-29T12:21:55.233Z,29.50
2018-06-29T12:24:23.551Z,29.50
2018-06-29T12:26:51.818Z,29.50
2018-06-29T12:29:20.186Z,29.50
2018-06-29T12:31:48.444Z,29.50
2018-06-29T12:34:16.735Z,29.50
2018-06-29T12:36:45.115Z,29.50
2018-06-29T12:39:13.409Z,29.50
2018-06-29T12:41:41.687Z,29.50
2018-06-29T12:44:10.486Z,29.50
2018-06-29T12:46:39.123Z,29.60
2018-06-29T12:49:07.671Z,29.60
2018-06-29T12:51:36.028Z,29.70
2018-06-29T12:54:04.376Z,29.80
2018-06-29T12:56:32.611Z,29.80
2018-06-29T12:59:01.342Z,29.80
2018-06-29T13:01:29.982Z,29.90
2018-06-29T13:03:58.655Z,29.90
2018-06-29T13:06:27.229Z,29.90
2018-06-29T13:08:55.471Z,30.00
2018-06-29T13:11:23.796Z,30.00
2018-06-29T13:13:52.166Z,30.10
2018-06-29T13:16:20.699Z,30.10
2018-06-29T13:18:49.016Z,30.10
2018-06-29T13:21:17.293Z,30.10
2018-06-29T13:23:45.644Z,30.10
2018-06-29T13:26:13.981Z,30.20
2018-06-29T13:28:42.335Z,30.20
2018-06-29T13:31:10.703Z,30.30
2018-06-29T13:33:39.108Z,30.30
2018-06-29T13:36:07.453Z,30.40
2018-06-29T13:38:35.697Z,30.40
2018-06-29T13:41:04.017Z,30.40
2018-06-29T13:43:32.253Z,30.40
2018-06-29T13:46:00.512Z,30.40
2018-06-29T13:48:28.836Z,30.40
2018-06-29T13:50:57.099Z,30.40
2018-06-29T13:53:25.800Z,30.40
2018-06-29T13:55:54.335Z,30.40
2018-06-29T13:58:22.713Z,30.50
2018-06-29T14:00:51.103Z,30.50
2018-06-29T14:03:19.347Z,30.50
2018-06-29T14:05:47.665Z,30.50
2018-06-29T14:08:16.393Z,30.60
2018-06-29T14:10:44.788Z,30.60
2018-06-29T14:13:13.049Z,30.60
2018-06-29T14:18:09.259Z,30.60
2018-06-29T14:20:38.303Z,30.60
2018-06-29T14:23:06.839Z,30.70
2018-06-29T14:25:35.193Z,30.70
2018-06-29T14:28:03.490Z,30.70
2018-06-29T14:30:31.750Z,30.70
2018-06-29T14:33:00.007Z,30.80
2018-06-29T14:35:28.387Z,30.80
2018-06-29T14:37:56.757Z,30.70
2018-06-29T14:40:25.329Z,30.70
2018-06-29T14:42:53.584Z,30.60
2018-06-29T14:45:21.871Z,30.60
2018-06-29T14:47:50.124Z,30.50
2018-06-29T14:50:18.486Z,30.50
2018-06-29T14:55:14.797Z,30.40
2018-06-29T14:57:43.066Z,30.40
2018-06-29T15:00:11.874Z,30.40
2018-06-29T15:02:40.970Z,30.40
2018-06-29T15:05:09.637Z,30.50
2018-06-29T15:07:37.929Z,30.60
2018-06-29T15:10:06.829Z,30.60
2018-06-29T15:12:35.100Z,30.60
2018-06-29T15:15:03.545Z,30.70
2018-06-29T15:17:31.820Z,30.70
2018-06-29T15:20:00.151Z,30.70
2018-06-29T15:22:28.524Z,30.70
2018-06-29T15:24:56.821Z,30.70
2018-06-29T15:27:25.834Z,30.70
2018-06-29T15:29:54.183Z,30.70
2018-06-29T15:32:22.461Z,30.80
2018-06-29T15:34:50.724Z,30.80
2018-06-29T15:37:19.467Z,30.80
2018-06-29T15:39:47.798Z,30.80
2018-06-29T15:42:16.071Z,30.80
2018-06-29T15:44:44.276Z,30.80
2018-06-29T15:47:12.544Z,30.80
2018-06-29T15:49:40.769Z,30.80
2018-06-29T15:52:09.132Z,30.80
2018-06-29T15:54:37.401Z,30.80
2018-06-29T15:57:05.687Z,30.80
2018-06-29T15:59:33.955Z,30.80
2018-06-29T16:02:02.218Z,30.90
2018-06-29T16:04:31.002Z,30.90
2018-06-29T16:06:59.310Z,30.90
2018-06-29T16:09:27.600Z,30.90
2018-06-29T16:11:56.190Z,30.80
2018-06-29T16:14:24.426Z,30.80
2018-06-29T16:19:22.224Z,30.70
2018-06-29T16:21:50.595Z,30.70
2018-06-29T16:24:18.845Z,30.70
2018-06-29T16:26:47.141Z,30.70
2018-06-29T16:29:15.542Z,30.60
2018-06-29T16:31:43.832Z,30.60
2018-06-29T16:34:12.122Z,30.60
2018-06-29T16:36:40.563Z,30.70
2018-06-29T16:39:10.645Z,30.70
2018-06-29T16:41:39.203Z,30.70
2018-06-29T16:46:35.777Z,30.70
2018-06-29T16:49:04.116Z,30.70
2018-06-29T16:51:33.657Z,30.70
2018-06-29T16:54:01.936Z,30.70
2018-06-29T16:56:30.190Z,30.70
2018-06-29T16:58:58.518Z,30.70
2018-06-29T17:01:26.749Z,30.60
2018-06-29T17:03:55.109Z,30.50
2018-06-29T17:06:23.415Z,30.50
2018-06-29T17:08:51.748Z,30.50
2018-06-29T17:11:20.055Z,30.50
2018-06-29T17:13:48.537Z,30.60
2018-06-29T17:16:16.761Z,30.60
2018-06-29T17:18:45.091Z,30.60
2018-06-29T17:21:13.330Z,30.60
2018-06-29T17:23:41.655Z,30.60
2018-06-29T17:26:09.848Z,30.60
2018-06-29T17:28:38.163Z,30.60
2018-06-29T17:31:06.603Z,30.60
2018-06-29T17:33:34.889Z,30.70
2018-06-29T17:36:03.176Z,30.70
2018-06-29T17:38:31.417Z,30.60
2018-06-29T17:43:27.888Z,30.60
2018-06-29T17:48:24.174Z,30.60
2018-06-29T17:50:53.449Z,30.60
2018-06-29T17:53:21.736Z,30.50
2018-06-29T17:55:50.099Z,30.50
2018-06-29T17:58:18.349Z,30.50
2018-06-29T18:00:46.600Z,30.50
2018-06-29T18:03:14.865Z,30.50
2018-06-29T18:05:43.182Z,30.50
2018-06-29T18:08:11.448Z,30.40
2018-06-29T18:10:39.739Z,30.40
2018-06-29T18:13:08.024Z,30.30
2018-06-29T18:15:36.354Z,30.30
2018-06-29T18:18:04.789Z,30.30
2018-06-29T18:20:33.110Z,30.30
2018-06-29T18:23:01.384Z,30.20
2018-06-29T18:25:29.642Z,30.20
2018-06-29T18:27:57.949Z,30.10
2018-06-29T18:30:26.208Z,30.10
2018-06-29T18:32:54.564Z,30.10
2018-06-29T18:35:22.823Z,30.00
2018-06-29T18:37:51.057Z,30.00
2018-06-29T18:40:19.332Z,30.00
2018-06-29T18:42:47.560Z,29.90
2018-06-29T18:45:15.873Z,29.90
2018-06-29T18:47:44.210Z,29.80
2018-06-29T18:50:12.708Z,29.80
2018-06-29T18:52:40.929Z,29.70
2018-06-29T18:55:09.244Z,29.70
2018-06-29T18:57:37.562Z,29.70
2018-06-29T19:00:06.146Z,29.60
2018-06-29T19:02:34.630Z,29.60
2018-06-29T19:05:02.869Z,29.50
2018-06-29T19:07:31.204Z,29.40
2018-06-29T19:09:59.516Z,29.30
2018-06-29T19:12:27.801Z,29.30
2018-06-29T19:14:56.035Z,29.10
2018-06-29T19:17:24.289Z,29.10
2018-06-29T19:19:52.552Z,29.00
2018-06-29T19:22:20.876Z,28.90
2018-06-29T19:24:49.166Z,28.80
2018-06-29T19:27:17.439Z,28.70
2018-06-29T19:29:45.719Z,28.60
2018-06-29T19:32:14.043Z,28.50
2018-06-29T19:34:42.359Z,28.50
2018-06-29T19:37:10.664Z,28.40
2018-06-29T19:39:38.888Z,28.30
2018-06-29T19:42:07.658Z,28.20
2018-06-29T19:44:35.931Z,28.10
2018-06-29T19:47:04.552Z,28.10
2018-06-29T19:49:32.875Z,28.00
2018-06-29T19:52:01.146Z,27.90
2018-06-29T19:54:29.420Z,27.80
2018-06-29T19:56:57.689Z,27.80
2018-06-29T19:59:26.142Z,27.70
2018-06-29T20:01:54.977Z,27.70
2018-06-29T20:04:23.276Z,27.60
2018-06-29T20:06:51.564Z,27.50
2018-06-29T20:09:19.831Z,27.50
2018-06-29T20:11:48.201Z,27.40
2018-06-29T20:14:17.228Z,27.40
2018-06-29T20:16:45.932Z,27.30
2018-06-29T20:19:14.400Z,27.20
2018-06-29T20:21:42.617Z,27.20
2018-06-29T20:24:10.952Z,27.10
2018-06-29T20:26:39.322Z,27.00
2018-06-29T20:29:07.651Z,26.90
2018-06-29T20:31:36.240Z,26.80
2018-06-29T20:34:04.763Z,26.80
2018-06-29T20:36:33.124Z,26.70
2018-06-29T20:39:01.454Z,26.60
2018-06-29T20:41:29.770Z,26.50
2018-06-29T20:43:58.630Z,26.40
2018-06-29T20:46:26.965Z,26.30
2018-06-29T20:48:55.420Z,26.30
2018-06-29T20:51:23.801Z,26.20
2018-06-29T20:53:52.091Z,26.10
2018-06-29T20:56:20.411Z,26.00
2018-06-29T21:01:17.752Z,25.90
2018-06-29T21:03:46.162Z,25.90
2018-06-29T21:06:14.506Z,25.80
2018-06-29T21:08:42.782Z,25.80
2018-06-29T21:11:11.063Z,25.70
2018-06-29T21:13:39.493Z,25.70
2018-06-29T21:16:07.901Z,25.60
2018-06-29T21:18:36.256Z,25.60
2018-06-29T21:21:04.675Z,25.50
2018-06-29T21:23:33.026Z,25.50
2018-06-29T21:26:01.420Z,25.40
2018-06-29T21:28:29.791Z,25.40
2018-06-29T21:30:58.136Z,25.30
2018-06-29T21:33:26.524Z,25.20
2018-06-29T21:35:54.916Z,25.20
2018-06-29T21:38:23.252Z,25.10
2018-06-29T21:40:52.040Z,25.10
2018-06-29T21:43:20.317Z,25.00
2018-06-29T21:45:48.581Z,25.00
2018-06-29T21:48:17.259Z,24.90
2018-06-29T21:50:45.690Z,24.90
2018-06-29T21:53:14.083Z,24.80
2018-06-29T21:55:42.447Z,24.70
2018-06-29T21:58:10.740Z,24.70
2018-06-29T22:00:42.661Z,24.60
2018-06-29T22:03:12.290Z,24.50
2018-06-29T22:08:10.399Z,24.40
2018-06-29T22:10:39.736Z,24.40
2018-06-29T22:13:08.051Z,24.30
2018-06-29T22:15:36.412Z,24.30
2018-06-29T22:18:06.355Z,24.30
2018-06-29T22:20:34.828Z,24.20
2018-06-29T22:23:03.210Z,24.20
2018-06-29T22:25:31.742Z,24.10
2018-06-29T22:28:00.186Z,24.10
2018-06-29T22:30:28.520Z,24.10
2018-06-29T22:32:56.872Z,24.00
2018-06-29T22:35:25.232Z,24.00
2018-06-29T22:37:53.511Z,23.90
2018-06-29T22:40:21.959Z,23.90
2018-06-29T22:42:50.290Z,23.80
2018-06-29T22:45:18.703Z,23.80
2018-06-29T22:47:47.163Z,23.80
2018-06-29T22:50:15.612Z,23.80
2018-06-29T22:52:45.103Z,23.80
2018-06-29T22:55:13.498Z,23.80
2018-06-29T22:57:41.779Z,23.80
2018-06-29T23:00:10.155Z,23.80
2018-06-29T23:02:38.442Z,23.70
2018-06-29T23:05:06.807Z,23.70
2018-06-29T23:07:35.065Z,23.70
2018-06-29T23:10:03.493Z,23.70
2018-06-29T23:12:31.807Z,23.70
2018-06-29T23:15:00.108Z,23.70
2018-06-29T23:17:28.524Z,23.60
2018-06-29T23:19:56.911Z,23.60
2018-06-29T23:22:25.389Z,23.60
2018-06-29T23:24:53.691Z,23.60
2018-06-29T23:27:22.013Z,23.60
2018-06-29T23:29:50.413Z,23.50
2018-06-29T23:32:18.740Z,23.50
2018-06-29T23:34:47.095Z,23.50
2018-06-29T23:37:15.466Z,23.50
2018-06-29T23:39:44.204Z,23.50
2018-06-29T23:42:12.556Z,23.50
2018-06-29T23:44:40.863Z,23.40
2018-06-29T23:47:09.239Z,23.40
2018-06-29T23:49:37.651Z,23.40
2018-06-29T23:52:06.039Z,23.30
2018-06-29T23:54:34.558Z,23.30
2018-06-29T23:57:03.407Z,23.30
2018-06-29T23:59:31.758Z,23.20
